Novomar — 5BCT2 — position and weather

sailwx.info

Track history (hours):
 
Tides and Currents Weather Stations Pressure Air Temp Water Temp Dewpoint Dewpoint Depression Visibility Wind Speed Wind Dir Waves Ship Positions

Novomar

Last reported at 2014-Oct-01 19:34 UTC. Time now 2014-Oct-01 20:32 UTC.
Position N 49°38' W 000°09'.

Length 89 m; draft 3.2 m.

Type: Cargo ship. MMSI: 210974000.

Date/timePositionNaut miles runAvg speedWind from/ knotsBaromVisibWave heightAir tempDewpointWater temp
2014-Oct-01 19:34N 49°38' W 000°09'55 6.7
2014-Oct-01 11:20N 50°31' E 000°17'6 7.5
2014-Oct-01 10:33N 50°33' E 000°26'8 7.6
2014-Oct-01 09:33N 50°36' E 000°37'8 8.4
2014-Oct-01 08:34N 50°41' E 000°47'8 8.5
2014-Oct-01 07:34N 50°46' E 000°59'9 8.1
2014-Oct-01 06:26N 50°51' E 001°11'10 7.7
2014-Oct-01 05:11N 50°57' E 001°22'5 7.2
2014-Oct-01 04:33N 51°01' E 001°27'6 6.0
2014-Oct-01 03:33N 51°05' E 001°33'6 5.7
2014-Oct-01 02:33N 51°09' E 001°39'7 6.9
2014-Oct-01 01:34N 51°14' E 001°47'9 8.6
2014-Oct-01 00:34N 51°21' E 001°55'8 7.0
2014-Sep-30 23:26N 51°23' E 002°07'8 8.1
2014-Sep-30 22:25N 51°21' E 002°20'7 8.6
2014-Sep-30 21:33N 51°23' E 002°31'11 9.3
2014-Sep-30 20:25N 51°22' E 002°48'1010.9
2014-Sep-30 19:32N 51°24' E 003°04'1111.1
2014-Sep-30 18:33N 51°25' E 003°21'1110.8
2014-Sep-30 17:34N 51°26' E 003°38'3 2.8
2014-Sep-30 16:34N 51°28' E 003°42'0 0.0
2014-Sep-30 15:34N 51°28' E 003°42'0 0.0
2014-Sep-30 14:34N 51°28' E 003°42'0 0.0
2014-Sep-30 13:34N 51°28' E 003°42'0 0.3
2014-Sep-30 12:33N 51°28' E 003°41'0 0.0
2014-Sep-30 11:34N 51°28' E 003°41'0 0.0
2014-Sep-30 10:34N 51°28' E 003°41'0 0.0
2014-Sep-30 09:33N 51°28' E 003°41'0 0.0
2014-Sep-30 08:33N 51°28' E 003°41'0 0.0
2014-Sep-30 07:33N 51°28' E 003°41'0 0.0
2014-Sep-30 06:33N 51°28' E 003°41'0 0.0
2014-Sep-30 05:33N 51°28' E 003°41'0 0.0
2014-Sep-30 04:33N 51°28' E 003°41'0 0.0
2014-Sep-30 03:33N 51°28' E 003°41'0 0.0
2014-Sep-30 02:33N 51°28' E 003°41'0 0.0
2014-Sep-30 01:33N 51°28' E 003°41'0 0.0
2014-Sep-30 00:33N 51°28' E 003°41'0 0.0
2014-Sep-29 23:33N 51°28' E 003°41'0 0.0
2014-Sep-29 22:33N 51°28' E 003°41'0 0.0
2014-Sep-29 21:33N 51°28' E 003°41'0 0.0
2014-Sep-29 20:33N 51°28' E 003°41'0 0.0
2014-Sep-29 19:33N 51°28' E 003°41'0 0.0
2014-Sep-29 18:33N 51°28' E 003°41'0 0.0
2014-Sep-29 17:33N 51°28' E 003°41'0 0.0
2014-Sep-29 16:33N 51°28' E 003°41'0 0.0
2014-Sep-29 15:33N 51°28' E 003°41'0 0.0
2014-Sep-29 14:33N 51°28' E 003°41'0 0.0
2014-Sep-29 13:33N 51°28' E 003°41'0 0.1
2014-Sep-29 12:33N 51°28' E 003°41'7 6.6
2014-Sep-29 11:33N 51°28' E 003°31'1111.1
2014-Sep-29 10:32N 51°38' E 003°21'9 9.4
2014-Sep-29 09:32N 51°46' E 003°14'1010.3
2014-Sep-29 08:33N 51°56' E 003°18'114 9.5
2014-Sep-28 20:32N 53°32' E 004°58'9 9.1
2014-Sep-28 19:32N 53°36' E 005°12'9 9.6
2014-Sep-28 18:33N 53°39' E 005°27'1110.7
2014-Sep-28 17:33N 53°42' E 005°44'1311.3
2014-Sep-28 16:27N 53°46' E 006°04'5110.0
2014-Sep-28 11:19N 53°60' E 007°28'6 8.5
2014-Sep-28 10:33N 54°01' E 007°39'9 8.4
2014-Sep-28 09:33N 54°01' E 007°54'9 9.1
2014-Sep-28 08:33N 54°01' E 008°09'1110.8
2014-Sep-28 07:33N 53°59' E 008°27'1212.3
2014-Sep-28 06:33N 53°52' E 008°44'1211.8
2014-Sep-28 05:33N 53°52' E 009°04'3 3.1
2014-Sep-28 04:33N 53°54' E 009°09'23 6.6
2014-Sep-28 01:05N 54°12' E 009°33'6 7.5
2014-Sep-28 00:14N 54°17' E 009°39'5 7.7
2014-Sep-27 23:32N 54°21' E 009°46'6 6.1
2014-Sep-27 22:33N 54°20' E 009°56'5 4.6
2014-Sep-27 21:33N 54°22' E 010°04'3 2.8
2014-Sep-27 20:33N 54°22' E 010°08'1 1.2
2014-Sep-27 19:33N 54°22' E 010°10'3 3.1
2014-Sep-27 18:33N 54°25' E 010°12'8 8.5
2014-Sep-27 17:33N 54°31' E 010°23'26 8.8
2014-Sep-27 14:33N 54°36' E 011°07'8 8.0
2014-Sep-27 13:33N 54°34' E 011°21'8 7.9
2014-Sep-27 12:33N 54°30' E 011°33'9 8.8
2014-Sep-27 11:33N 54°28' E 011°48'10 9.5
2014-Sep-27 10:33N 54°27' E 012°04'72 9.0
2014-Sep-27 02:33N 55°02' E 013°53'8 8.6
2014-Sep-27 01:34N 55°05' E 014°07'9 8.5
2014-Sep-27 00:33N 55°11' E 014°16'9 9.3
2014-Sep-26 23:34N 55°19' E 014°26'10 9.5
2014-Sep-26 22:33N 55°26' E 014°37'9 9.1
2014-Sep-26 21:33N 55°31' E 014°50'9 8.9
2014-Sep-26 20:34N 55°35' E 015°04'19 9.1
2014-Sep-26 18:31N 55°45' E 015°32'66 9.0
2014-Sep-26 11:12N 56°29' E 016°59'29 9.9
2014-Sep-26 08:14N 56°57' E 017°18'1110.2
2014-Sep-26 07:08N 57°07' E 017°25'610.3
2014-Sep-26 06:33N 57°13' E 017°29'1010.4
2014-Sep-26 05:34N 57°22' E 017°37'1010.4
2014-Sep-26 04:34N 57°32' E 017°44'  
Track history (hours):
 
Tides and Currents Weather Stations Pressure Air Temp Water Temp Dewpoint Dewpoint Depression Visibility Wind Speed Wind Dir Waves Ship Positions

Novomar

Last reported at 2014-Oct-01 19:34 UTC. Time now 2014-Oct-01 20:32 UTC.
Position N 49°38' W 000°09'.

Length 89 m; draft 3.2 m.

Type: Cargo ship. MMSI: 210974000.

Date/timePositionNaut miles runAvg speedWind from/ knotsBaromVisibWave heightAir tempDewpointWater temp
2014-Oct-01 19:34N 49°38' W 000°09'55 6.7
2014-Oct-01 11:20N 50°31' E 000°17'6 7.5
2014-Oct-01 10:33N 50°33' E 000°26'8 7.6
2014-Oct-01 09:33N 50°36' E 000°37'8 8.4
2014-Oct-01 08:34N 50°41' E 000°47'8 8.5
2014-Oct-01 07:34N 50°46' E 000°59'9 8.1
2014-Oct-01 06:26N 50°51' E 001°11'10 7.7
2014-Oct-01 05:11N 50°57' E 001°22'5 7.2
2014-Oct-01 04:33N 51°01' E 001°27'6 6.0
2014-Oct-01 03:33N 51°05' E 001°33'6 5.7
2014-Oct-01 02:33N 51°09' E 001°39'7 6.9
2014-Oct-01 01:34N 51°14' E 001°47'9 8.6
2014-Oct-01 00:34N 51°21' E 001°55'8 7.0
2014-Sep-30 23:26N 51°23' E 002°07'8 8.1
2014-Sep-30 22:25N 51°21' E 002°20'7 8.6
2014-Sep-30 21:33N 51°23' E 002°31'11 9.3
2014-Sep-30 20:25N 51°22' E 002°48'1010.9
2014-Sep-30 19:32N 51°24' E 003°04'1111.1
2014-Sep-30 18:33N 51°25' E 003°21'1110.8
2014-Sep-30 17:34N 51°26' E 003°38'3 2.8
2014-Sep-30 16:34N 51°28' E 003°42'0 0.0
2014-Sep-30 15:34N 51°28' E 003°42'0 0.0
2014-Sep-30 14:34N 51°28' E 003°42'0 0.0
2014-Sep-30 13:34N 51°28' E 003°42'0 0.3
2014-Sep-30 12:33N 51°28' E 003°41'0 0.0
2014-Sep-30 11:34N 51°28' E 003°41'0 0.0
2014-Sep-30 10:34N 51°28' E 003°41'0 0.0
2014-Sep-30 09:33N 51°28' E 003°41'0 0.0
2014-Sep-30 08:33N 51°28' E 003°41'0 0.0
2014-Sep-30 07:33N 51°28' E 003°41'0 0.0
2014-Sep-30 06:33N 51°28' E 003°41'0 0.0
2014-Sep-30 05:33N 51°28' E 003°41'0 0.0
2014-Sep-30 04:33N 51°28' E 003°41'0 0.0
2014-Sep-30 03:33N 51°28' E 003°41'0 0.0
2014-Sep-30 02:33N 51°28' E 003°41'0 0.0
2014-Sep-30 01:33N 51°28' E 003°41'0 0.0
2014-Sep-30 00:33N 51°28' E 003°41'0 0.0
2014-Sep-29 23:33N 51°28' E 003°41'0 0.0
2014-Sep-29 22:33N 51°28' E 003°41'0 0.0
2014-Sep-29 21:33N 51°28' E 003°41'0 0.0
2014-Sep-29 20:33N 51°28' E 003°41'0 0.0
2014-Sep-29 19:33N 51°28' E 003°41'0 0.0
2014-Sep-29 18:33N 51°28' E 003°41'0 0.0
2014-Sep-29 17:33N 51°28' E 003°41'0 0.0
2014-Sep-29 16:33N 51°28' E 003°41'0 0.0
2014-Sep-29 15:33N 51°28' E 003°41'0 0.0
2014-Sep-29 14:33N 51°28' E 003°41'0 0.0
2014-Sep-29 13:33N 51°28' E 003°41'0 0.1
2014-Sep-29 12:33N 51°28' E 003°41'7 6.6
2014-Sep-29 11:33N 51°28' E 003°31'1111.1
2014-Sep-29 10:32N 51°38' E 003°21'9 9.4
2014-Sep-29 09:32N 51°46' E 003°14'1010.3
2014-Sep-29 08:33N 51°56' E 003°18'114 9.5
2014-Sep-28 20:32N 53°32' E 004°58'9 9.1
2014-Sep-28 19:32N 53°36' E 005°12'9 9.6
2014-Sep-28 18:33N 53°39' E 005°27'1110.7
2014-Sep-28 17:33N 53°42' E 005°44'1311.3
2014-Sep-28 16:27N 53°46' E 006°04'5110.0
2014-Sep-28 11:19N 53°60' E 007°28'6 8.5
2014-Sep-28 10:33N 54°01' E 007°39'9 8.4
2014-Sep-28 09:33N 54°01' E 007°54'9 9.1
2014-Sep-28 08:33N 54°01' E 008°09'1110.8
2014-Sep-28 07:33N 53°59' E 008°27'1212.3
2014-Sep-28 06:33N 53°52' E 008°44'1211.8
2014-Sep-28 05:33N 53°52' E 009°04'3 3.1
2014-Sep-28 04:33N 53°54' E 009°09'23 6.6
2014-Sep-28 01:05N 54°12' E 009°33'6 7.5
2014-Sep-28 00:14N 54°17' E 009°39'5 7.7
2014-Sep-27 23:32N 54°21' E 009°46'6 6.1
2014-Sep-27 22:33N 54°20' E 009°56'5 4.6
2014-Sep-27 21:33N 54°22' E 010°04'3 2.8
2014-Sep-27 20:33N 54°22' E 010°08'1 1.2
2014-Sep-27 19:33N 54°22' E 010°10'3 3.1
2014-Sep-27 18:33N 54°25' E 010°12'8 8.5
2014-Sep-27 17:33N 54°31' E 010°23'26 8.8
2014-Sep-27 14:33N 54°36' E 011°07'8 8.0
2014-Sep-27 13:33N 54°34' E 011°21'8 7.9
2014-Sep-27 12:33N 54°30' E 011°33'9 8.8
2014-Sep-27 11:33N 54°28' E 011°48'10 9.5
2014-Sep-27 10:33N 54°27' E 012°04'72 9.0
2014-Sep-27 02:33N 55°02' E 013°53'8 8.6
2014-Sep-27 01:34N 55°05' E 014°07'9 8.5
2014-Sep-27 00:33N 55°11' E 014°16'9 9.3
2014-Sep-26 23:34N 55°19' E 014°26'10 9.5
2014-Sep-26 22:33N 55°26' E 014°37'9 9.1
2014-Sep-26 21:33N 55°31' E 014°50'9 8.9
2014-Sep-26 20:34N 55°35' E 015°04'19 9.1
2014-Sep-26 18:31N 55°45' E 015°32'66 9.0
2014-Sep-26 11:12N 56°29' E 016°59'29 9.9
2014-Sep-26 08:14N 56°57' E 017°18'1110.2
2014-Sep-26 07:08N 57°07' E 017°25'610.3
2014-Sep-26 06:33N 57°13' E 017°29'1010.4
2014-Sep-26 05:34N 57°22' E 017°37'1010.4
2014-Sep-26 04:34N 57°32' E 017°44'  

Dump ship's entire track history